createdAt,value
2022-12-25T00:02:44.479Z,3.74
2022-12-25T00:05:46.260Z,3.74
2022-12-25T00:08:47.817Z,3.73
2022-12-25T00:11:49.535Z,3.72
2022-12-25T00:14:51.291Z,3.73
2022-12-25T00:17:53.065Z,3.73
2022-12-25T00:21:13.959Z,3.73
2022-12-25T00:24:15.688Z,3.73
2022-12-25T00:27:17.237Z,3.73
2022-12-25T00:30:19.039Z,3.68
2022-12-25T00:33:20.785Z,3.65
2022-12-25T00:36:23.706Z,3.65
2022-12-25T00:39:25.410Z,3.67
2022-12-25T00:42:28.608Z,3.68
2022-12-25T00:45:30.298Z,3.67
2022-12-25T00:48:32.478Z,3.69
2022-12-25T00:51:34.368Z,3.71
2022-12-25T00:54:36.141Z,3.73
2022-12-25T00:57:37.690Z,3.74
2022-12-25T01:00:39.638Z,3.72
2022-12-25T01:03:41.575Z,3.65
2022-12-25T01:06:43.371Z,3.62
2022-12-25T01:10:04.448Z,3.65
2022-12-25T01:13:06.328Z,3.69
2022-12-25T01:16:10.253Z,3.72
2022-12-25T01:19:12.114Z,3.76
2022-12-25T01:22:14.060Z,3.77
2022-12-25T01:25:15.710Z,3.74
2022-12-25T01:28:17.376Z,3.73
2022-12-25T01:31:22.134Z,3.69
2022-12-25T01:34:24.135Z,3.62
2022-12-25T01:37:26.029Z,3.56
2022-12-25T01:40:28.248Z,3.50
2022-12-25T01:43:32.320Z,3.40
2022-12-25T01:46:35.049Z,3.35
2022-12-25T01:49:38.246Z,3.29
2022-12-25T01:52:40.136Z,3.19
2022-12-25T01:55:43.438Z,3.11
2022-12-25T01:58:45.159Z,3.07
2022-12-25T02:01:46.826Z,3.05
2022-12-25T02:05:12.684Z,3.05
2022-12-25T02:08:17.097Z,3.10
2022-12-25T02:11:37.550Z,3.06
2022-12-25T02:14:39.556Z,2.97
2022-12-25T02:17:47.055Z,2.90
2022-12-25T02:21:10.469Z,2.87
2022-12-25T02:24:37.261Z,2.96
2022-12-25T02:28:00.826Z,3.06
2022-12-25T02:31:39.214Z,3.13
2022-12-25T02:34:44.974Z,3.18
2022-12-25T02:37:56.008Z,3.23
2022-12-25T02:41:00.170Z,3.29
2022-12-25T02:44:22.724Z,3.35
2022-12-25T02:47:51.284Z,3.38
2022-12-25T02:51:12.422Z,3.40
2022-12-25T02:54:36.840Z,3.43
2022-12-25T02:58:01.478Z,3.46
2022-12-25T03:01:26.686Z,3.45
2022-12-25T03:04:48.391Z,3.40
2022-12-25T03:07:50.371Z,3.39
2022-12-25T03:11:33.559Z,3.41
2022-12-25T03:14:54.464Z,3.40
2022-12-25T03:17:59.730Z,3.40
2022-12-25T03:21:20.278Z,3.37
2022-12-25T03:24:40.789Z,3.29
2022-12-25T03:27:43.083Z,3.22
2022-12-25T03:31:14.459Z,3.14
2022-12-25T03:34:57.613Z,3.10
2022-12-25T03:38:35.241Z,3.13
2022-12-25T03:42:18.821Z,3.16
2022-12-25T03:45:57.770Z,3.08
2022-12-25T03:49:27.202Z,2.94
2022-12-25T03:52:48.696Z,2.84
2022-12-25T03:56:10.265Z,2.79
2022-12-25T03:59:30.706Z,2.76
2022-12-25T04:02:51.539Z,2.76
2022-12-25T04:06:12.322Z,2.77
2022-12-25T04:09:33.039Z,2.79
2022-12-25T04:12:53.517Z,2.79
2022-12-25T04:16:14.453Z,2.82
2022-12-25T04:19:35.112Z,2.87
2022-12-25T04:22:55.970Z,2.94
2022-12-25T04:26:17.687Z,3.03
2022-12-25T04:29:38.382Z,3.11
2022-12-25T04:32:58.848Z,3.12
2022-12-25T04:36:09.333Z,3.09
2022-12-25T04:39:11.068Z,3.00
2022-12-25T04:42:12.818Z,2.92
2022-12-25T04:45:14.754Z,2.85
2022-12-25T04:48:16.302Z,2.82
2022-12-25T04:51:24.502Z,2.79
2022-12-25T04:54:26.229Z,2.77
2022-12-25T04:57:27.804Z,2.70
2022-12-25T05:00:29.507Z,2.67
2022-12-25T05:03:31.434Z,2.64
2022-12-25T05:06:33.044Z,2.58
2022-12-25T05:09:34.955Z,2.54
2022-12-25T05:12:36.645Z,2.52
2022-12-25T05:15:41.377Z,2.48
2022-12-25T05:18:43.455Z,2.53
2022-12-25T05:21:45.044Z,2.53
2022-12-25T05:24:46.603Z,2.48
2022-12-25T05:27:53.747Z,2.47
2022-12-25T05:30:58.638Z,2.56
2022-12-25T05:34:00.468Z,2.62
2022-12-25T05:37:02.212Z,2.70
2022-12-25T05:40:04.144Z,2.77
2022-12-25T05:43:06.123Z,2.90
2022-12-25T05:46:09.566Z,2.95
2022-12-25T05:49:11.291Z,2.97
2022-12-25T05:52:12.931Z,2.99
2022-12-25T05:55:14.731Z,3.00
2022-12-25T05:58:16.453Z,3.01
2022-12-25T06:01:22.385Z,3.03
2022-12-25T06:04:24.509Z,3.06
2022-12-25T06:07:26.135Z,3.16
2022-12-25T06:10:27.816Z,3.24
2022-12-25T06:13:29.552Z,3.30
2022-12-25T06:16:37.651Z,3.33
2022-12-25T06:19:42.401Z,3.35
2022-12-25T06:22:44.011Z,3.38
2022-12-25T06:25:45.584Z,3.41
2022-12-25T06:28:47.640Z,3.45
2022-12-25T06:31:49.579Z,3.48
2022-12-25T06:34:51.326Z,3.48
2022-12-25T06:37:53.140Z,3.47
2022-12-25T06:40:54.787Z,3.46
2022-12-25T06:43:58.695Z,3.44
2022-12-25T06:47:00.436Z,3.45
2022-12-25T06:50:02.333Z,3.44
2022-12-25T06:53:03.988Z,3.42
2022-12-25T06:56:07.899Z,3.43
2022-12-25T06:59:11.035Z,3.44
2022-12-25T07:02:17.774Z,3.45
2022-12-25T07:05:19.625Z,3.45
2022-12-25T07:08:21.183Z,3.47
2022-12-25T07:11:23.373Z,3.47
2022-12-25T07:14:25.043Z,3.46
2022-12-25T07:17:26.722Z,3.43
2022-12-25T07:20:30.069Z,3.42
2022-12-25T07:23:31.794Z,3.40
2022-12-25T07:26:33.343Z,3.33
2022-12-25T07:29:35.234Z,3.27
2022-12-25T07:32:36.962Z,3.27
2022-12-25T07:35:38.824Z,3.31
2022-12-25T07:38:42.156Z,3.34
2022-12-25T07:41:44.244Z,3.37
2022-12-25T07:44:45.849Z,3.38
2022-12-25T07:47:47.407Z,3.41
2022-12-25T07:50:49.096Z,3.43
2022-12-25T07:53:50.755Z,3.46
2022-12-25T07:56:52.956Z,3.47
2022-12-25T07:59:54.629Z,3.46
2022-12-25T08:02:56.937Z,3.46
2022-12-25T08:06:01.181Z,3.50
2022-12-25T08:09:11.214Z,3.57
2022-12-25T08:12:12.932Z,3.64
2022-12-25T08:15:14.626Z,3.65
2022-12-25T08:18:16.428Z,3.67
2022-12-25T08:21:18.198Z,3.64
2022-12-25T08:24:19.760Z,3.65
2022-12-25T08:27:21.532Z,3.71
2022-12-25T08:30:23.353Z,3.84
2022-12-25T08:33:25.257Z,4.00
2022-12-25T08:36:27.334Z,4.13
2022-12-25T08:39:29.028Z,4.33
2022-12-25T08:42:30.738Z,4.89
2022-12-25T08:45:35.227Z,5.63
2022-12-25T08:48:37.914Z,6.37
2022-12-25T08:51:39.766Z,7.04
2022-12-25T08:54:41.459Z,7.54
2022-12-25T08:57:43.282Z,7.99
2022-12-25T09:00:44.925Z,8.46
2022-12-25T09:03:46.673Z,8.85
2022-12-25T09:06:50.250Z,9.15
2022-12-25T09:09:54.342Z,9.37
2022-12-25T09:12:55.981Z,9.70
2022-12-25T09:15:57.802Z,10.20
2022-12-25T09:18:59.503Z,10.73
2022-12-25T09:22:01.113Z,11.08
2022-12-25T09:25:02.987Z,11.25
2022-12-25T09:28:04.864Z,11.32
2022-12-25T09:31:07.366Z,11.42
2022-12-25T09:34:15.417Z,11.47
2022-12-25T09:37:18.931Z,11.46
2022-12-25T09:40:21.710Z,11.43
2022-12-25T09:43:24.672Z,11.53
2022-12-25T09:46:34.809Z,11.77
2022-12-25T09:49:56.297Z,12.17
2022-12-25T09:53:10.493Z,12.49
2022-12-25T09:56:12.324Z,12.64
2022-12-25T09:59:25.505Z,12.83
2022-12-25T10:02:50.499Z,12.94
2022-12-25T10:06:18.725Z,13.03
2022-12-25T10:09:43.062Z,13.12
2022-12-25T10:12:54.743Z,13.28
2022-12-25T10:16:07.727Z,13.57
2022-12-25T10:19:32.433Z,13.74
2022-12-25T10:23:04.186Z,13.78
2022-12-25T10:26:18.208Z,13.77
2022-12-25T10:29:20.227Z,14.12
2022-12-25T10:32:22.379Z,14.53
2022-12-25T10:35:26.434Z,14.69
2022-12-25T10:38:28.210Z,14.67
2022-12-25T10:41:56.729Z,14.66
2022-12-25T10:45:01.209Z,14.85
2022-12-25T10:48:07.855Z,14.94
2022-12-25T10:51:09.941Z,15.03
2022-12-25T10:54:29.869Z,15.08
2022-12-25T10:57:31.498Z,15.09
2022-12-25T11:00:33.459Z,15.06
2022-12-25T11:03:38.797Z,15.20
2022-12-25T11:06:40.524Z,15.28
2022-12-25T11:09:50.020Z,15.05
2022-12-25T11:12:52.440Z,14.86
2022-12-25T11:16:11.071Z,14.59
2022-12-25T11:19:31.607Z,14.39
2022-12-25T11:22:37.086Z,14.47
2022-12-25T11:25:38.811Z,14.69
2022-12-25T11:28:41.525Z,14.44
2022-12-25T11:31:43.476Z,13.66
2022-12-25T11:34:47.534Z,13.14
2022-12-25T11:37:51.529Z,12.55
2022-12-25T11:40:58.323Z,12.06
2022-12-25T11:44:05.127Z,11.59
2022-12-25T11:47:32.766Z,11.21
2022-12-25T11:50:38.010Z,10.88
2022-12-25T11:53:52.000Z,10.44
2022-12-25T11:56:55.926Z,10.10
2022-12-25T12:00:03.985Z,9.89
2022-12-25T12:03:19.385Z,9.78
2022-12-25T12:06:49.837Z,9.70
2022-12-25T12:10:00.483Z,9.54
2022-12-25T12:13:20.769Z,9.40
2022-12-25T12:16:22.779Z,9.46
2022-12-25T12:19:30.533Z,9.51
2022-12-25T12:22:32.289Z,9.36
2022-12-25T12:25:39.151Z,9.22
2022-12-25T12:28:45.809Z,9.14
2022-12-25T12:31:49.209Z,8.97
2022-12-25T12:34:51.068Z,8.91
2022-12-25T12:38:30.409Z,8.85
2022-12-25T12:41:45.112Z,8.75
2022-12-25T12:44:48.928Z,8.70
2022-12-25T12:47:51.788Z,8.72
2022-12-25T12:51:14.831Z,8.75
2022-12-25T12:54:26.157Z,8.76
2022-12-25T12:57:32.806Z,8.81
2022-12-25T13:00:44.575Z,8.81
2022-12-25T13:04:09.597Z,8.77
2022-12-25T13:07:21.310Z,8.76
2022-12-25T13:10:32.622Z,8.76
2022-12-25T13:13:41.296Z,8.75
2022-12-25T13:16:45.821Z,8.75
2022-12-25T13:19:51.225Z,8.71
2022-12-25T13:22:53.288Z,8.67
2022-12-25T13:25:57.057Z,8.64
2022-12-25T13:28:58.809Z,8.62
2022-12-25T13:32:02.394Z,8.59
2022-12-25T13:35:04.918Z,8.47
2022-12-25T13:38:14.348Z,8.16
2022-12-25T13:41:40.738Z,7.85
2022-12-25T13:44:48.466Z,7.55
2022-12-25T13:47:55.218Z,7.32
2022-12-25T13:50:59.708Z,7.17
2022-12-25T13:54:06.126Z,7.07
2022-12-25T13:57:12.990Z,6.97
2022-12-25T14:00:28.543Z,6.77
2022-12-25T14:03:41.081Z,6.64
2022-12-25T14:06:43.129Z,6.56
2022-12-25T14:09:44.925Z,6.45
2022-12-25T14:12:49.697Z,6.30
2022-12-25T14:15:53.683Z,6.17
2022-12-25T14:19:01.260Z,6.14
2022-12-25T14:22:10.886Z,5.86
2022-12-25T14:25:15.901Z,5.51
2022-12-25T14:28:24.951Z,5.25
2022-12-25T14:31:28.806Z,5.04
2022-12-25T14:34:32.774Z,4.86
2022-12-25T14:37:34.568Z,4.83
2022-12-25T14:40:36.151Z,4.84
2022-12-25T14:43:37.817Z,4.62
2022-12-25T14:46:39.808Z,4.53
2022-12-25T14:49:41.906Z,4.60
2022-12-25T14:52:45.057Z,4.50
2022-12-25T14:55:52.193Z,4.29
2022-12-25T14:58:56.793Z,4.18
2022-12-25T15:02:01.316Z,4.07
2022-12-25T15:05:03.379Z,3.93
2022-12-25T15:08:14.100Z,3.77
2022-12-25T15:11:15.885Z,3.63
2022-12-25T15:14:17.781Z,3.50
2022-12-25T15:17:26.656Z,3.40
2022-12-25T15:20:31.650Z,3.24
2022-12-25T15:23:33.341Z,3.08
2022-12-25T15:26:34.964Z,2.88
2022-12-25T15:30:08.552Z,2.77
2022-12-25T15:32:58.195Z,2.68
2022-12-25T15:36:00.018Z,2.58
2022-12-25T15:39:01.887Z,2.43
2022-12-25T15:42:12.789Z,2.28
2022-12-25T15:45:24.639Z,2.11
2022-12-25T15:48:26.348Z,1.96
2022-12-25T15:51:28.080Z,1.84
2022-12-25T15:54:31.077Z,1.80
2022-12-25T15:57:33.589Z,1.82
2022-12-25T16:00:35.247Z,1.78
2022-12-25T16:03:36.988Z,1.69
2022-12-25T16:06:38.937Z,1.58
2022-12-25T16:09:40.583Z,1.49
2022-12-25T16:12:42.681Z,1.40
2022-12-25T16:15:45.197Z,1.33
2022-12-25T16:18:47.924Z,1.27
2022-12-25T16:21:50.164Z,1.13
2022-12-25T16:24:52.554Z,1.03
2022-12-25T16:27:54.147Z,0.96
2022-12-25T16:30:55.920Z,0.93
2022-12-25T16:33:57.761Z,0.90
2022-12-25T16:36:59.387Z,0.84
2022-12-25T16:40:01.458Z,0.86
2022-12-25T16:43:03.159Z,0.94
2022-12-25T16:46:11.781Z,1.01
2022-12-25T16:49:13.483Z,1.06
2022-12-25T16:52:15.094Z,1.08
2022-12-25T16:55:16.888Z,1.13
2022-12-25T16:58:18.599Z,1.13
2022-12-25T17:01:20.779Z,1.08
2022-12-25T17:04:22.919Z,1.01
2022-12-25T17:07:24.653Z,0.89
2022-12-25T17:10:26.254Z,0.75
2022-12-25T17:13:27.961Z,0.65
2022-12-25T17:16:33.034Z,0.61
2022-12-25T17:19:34.971Z,0.66
2022-12-25T17:22:36.688Z,0.88
2022-12-25T17:25:38.295Z,0.97
2022-12-25T17:28:40.106Z,1.03
2022-12-25T17:31:41.905Z,1.16
2022-12-25T17:34:43.835Z,1.24
2022-12-25T17:37:45.530Z,1.36
2022-12-25T17:40:54.753Z,1.42
2022-12-25T17:43:56.534Z,1.42
2022-12-25T17:46:58.264Z,1.48
2022-12-25T17:50:00.271Z,1.46
2022-12-25T17:53:02.706Z,1.48
2022-12-25T17:56:05.723Z,1.48
2022-12-25T17:59:10.078Z,1.44
2022-12-25T18:02:11.998Z,1.36
2022-12-25T18:05:13.920Z,1.26
2022-12-25T18:08:16.189Z,1.15
2022-12-25T18:11:21.388Z,1.00
2022-12-25T18:14:23.268Z,0.83
2022-12-25T18:17:24.974Z,0.71
2022-12-25T18:20:26.532Z,0.61
2022-12-25T18:23:28.619Z,0.53
2022-12-25T18:26:30.475Z,0.49
2022-12-25T18:29:32.252Z,0.47
2022-12-25T18:32:34.104Z,0.39
2022-12-25T18:35:39.069Z,0.37
2022-12-25T18:38:40.948Z,0.35
2022-12-25T18:42:01.766Z,0.31
2022-12-25T18:45:03.995Z,0.29
2022-12-25T18:48:06.476Z,0.29
2022-12-25T18:51:11.196Z,0.25
2022-12-25T18:54:12.967Z,0.21
2022-12-25T18:57:14.533Z,0.17
2022-12-25T19:00:16.694Z,0.13
2022-12-25T19:03:18.471Z,0.13
2022-12-25T19:06:23.441Z,0.16
2022-12-25T19:09:25.163Z,0.24
2022-12-25T19:12:26.743Z,0.27
2022-12-25T19:15:28.422Z,0.28
2022-12-25T19:18:30.299Z,0.29
2022-12-25T19:21:32.096Z,0.31
2022-12-25T19:24:33.854Z,0.32
2022-12-25T19:27:35.768Z,0.28
2022-12-25T19:30:38.467Z,0.26
2022-12-25T19:33:41.603Z,0.28
2022-12-25T19:36:43.190Z,0.26
2022-12-25T19:39:46.905Z,0.27
2022-12-25T19:42:48.782Z,0.32
2022-12-25T19:45:50.794Z,0.33
2022-12-25T19:48:52.569Z,0.32
2022-12-25T19:51:54.258Z,0.36
2022-12-25T19:54:56.064Z,0.44
2022-12-25T19:57:59.269Z,0.38
2022-12-25T20:01:05.636Z,0.35
2022-12-25T20:04:09.848Z,0.37
2022-12-25T20:07:11.647Z,0.44
2022-12-25T20:10:13.269Z,0.55
2022-12-25T20:13:15.269Z,0.60
2022-12-25T20:16:17.748Z,0.59
2022-12-25T20:19:19.394Z,0.56
2022-12-25T20:22:21.135Z,0.53
2022-12-25T20:25:22.884Z,0.50
2022-12-25T20:28:24.590Z,0.44
2022-12-25T20:31:27.605Z,0.43
2022-12-25T20:34:30.568Z,0.44
2022-12-25T20:37:32.310Z,0.40
2022-12-25T20:40:53.071Z,0.29
2022-12-25T20:43:56.220Z,0.21
2022-12-25T20:47:01.051Z,0.18
2022-12-25T20:50:02.814Z,0.16
2022-12-25T20:53:04.416Z,0.15
2022-12-25T20:56:06.738Z,0.15
2022-12-25T20:59:09.861Z,0.11
2022-12-25T21:02:33.486Z,0.06
2022-12-25T21:05:34.113Z,0.03
2022-12-25T21:08:36.544Z,0.12
2022-12-25T21:11:39.374Z,0.25
2022-12-25T21:14:43.071Z,0.32
2022-12-25T21:17:45.826Z,0.38
2022-12-25T21:20:51.332Z,0.43
2022-12-25T21:23:55.299Z,0.47
2022-12-25T21:26:56.940Z,0.50
2022-12-25T21:29:58.650Z,0.56
2022-12-25T21:33:36.109Z,0.59
2022-12-25T21:36:37.900Z,0.56
2022-12-25T21:39:39.470Z,0.59
2022-12-25T21:42:41.108Z,0.64
2022-12-25T21:45:42.875Z,0.67
2022-12-25T21:48:44.596Z,0.70
2022-12-25T21:52:05.283Z,0.72
2022-12-25T21:55:07.308Z,0.71
2022-12-25T21:58:09.073Z,0.68
2022-12-25T22:01:11.785Z,0.63
2022-12-25T22:04:15.299Z,0.58
2022-12-25T22:07:19.914Z,0.53
2022-12-25T22:10:21.623Z,0.51
2022-12-25T22:13:42.360Z,0.49
2022-12-25T22:17:02.978Z,0.47
2022-12-25T22:20:06.948Z,0.43
2022-12-25T22:23:08.789Z,0.41
2022-12-25T22:26:13.361Z,0.42
2022-12-25T22:29:17.704Z,0.44
2022-12-25T22:32:19.583Z,0.45
2022-12-25T22:35:23.647Z,0.48
2022-12-25T22:38:25.293Z,0.48
2022-12-25T22:41:33.086Z,0.51
2022-12-25T22:44:35.910Z,0.54
2022-12-25T22:47:37.935Z,0.55
2022-12-25T22:50:39.648Z,0.58
2022-12-25T22:53:41.159Z,0.60
2022-12-25T22:56:48.246Z,0.62
2022-12-25T22:59:52.847Z,0.64
2022-12-25T23:02:54.729Z,0.65
2022-12-25T23:05:57.124Z,0.67
2022-12-25T23:08:59.009Z,0.68
2022-12-25T23:12:00.960Z,0.69
2022-12-25T23:15:02.896Z,0.67
2022-12-25T23:18:23.887Z,0.65
2022-12-25T23:21:53.116Z,0.65
2022-12-25T23:25:14.649Z,0.65
2022-12-25T23:28:36.371Z,0.68
2022-12-25T23:31:39.820Z,0.71
2022-12-25T23:34:44.685Z,0.74
2022-12-25T23:37:46.723Z,0.77
2022-12-25T23:40:48.542Z,0.80
2022-12-25T23:43:50.586Z,0.83
2022-12-25T23:46:53.649Z,0.86
2022-12-25T23:49:55.639Z,0.88
2022-12-25T23:52:57.468Z,0.90
2022-12-25T23:55:59.427Z,0.92
2022-12-25T23:59:01.196Z,0.93
